| time (UTC) | temp C | wind direction | speed KPH | gust KPH | rain 1hr cm | rain 24hr cm | rain mn cm | humidity % | barometer mb |
| 20260507064702 | 3 | 158 | 1.6 | 8.0 | 0.00 | 0.10 | 0.10 | 91 | 1015.1 |
| 20260507064202 | 3 | 157 | 1.6 | 4.8 | 0.00 | 0.10 | 0.10 | 92 | 1015.0 |
| 20260507063702 | 3 | 157 | 1.6 | 4.8 | 0.00 | 0.10 | 0.10 | 91 | 1015.0 |
| 20260507063202 | 3 | 157 | 1.6 | 3.2 | 0.00 | 0.10 | 0.10 | 92 | 1014.9 |
| 20260507061702 | 3 | 157 | 0.0 | 3.2 | 0.00 | 0.10 | 0.10 | 92 | 1014.7 |
| 20260507061202 | 3 | 157 | 1.6 | 4.8 | 0.00 | 0.10 | 0.10 | 92 | 1014.7 |
| 20260507060702 | 4 | 157 | 1.6 | 4.8 | 0.00 | 0.10 | 0.10 | 92 | 1014.7 |
| 20260507060202 | 4 | 157 | 1.6 | 4.8 | 0.00 | 0.10 | 0.10 | 92 | 1014.6 |
| 20260507055701 | 4 | 157 | 0.0 | 3.2 | 0.00 | 0.10 | 0.10 | 92 | 1014.6 |
| 20260507055203 | 4 | 157 | 1.6 | 3.2 | 0.00 | 0.10 | 0.10 | 92 | 1014.5 |
| 20260507053702 | 4 | 157 | 1.6 | 4.8 | 0.00 | 0.10 | 0.10 | 92 | 1014.4 |
| 20260507053201 | 4 | 157 | 0.0 | 4.8 | 0.00 | 0.10 | 0.10 | 91 | 1014.4 |
| 20260507052202 | 4 | 157 | 0.0 | 4.8 | 0.00 | 0.10 | 0.10 | 91 | 1014.4 |
| 20260507051702 | 4 | 157 | 1.6 | 4.8 | 0.00 | 0.10 | 0.10 | 90 | 1014.3 |
| 20260507051202 | 4 | 157 | 1.6 | 8.0 | 0.00 | 0.10 | 0.10 | 90 | 1014.3 |
| 20260507050702 | 4 | 149 | 1.6 | 4.8 | 0.00 | 0.10 | 0.10 | 90 | 1014.3 |
| 20260507050202 | 5 | 150 | 1.6 | 4.8 | 0.03 | 0.10 | 0.10 | 90 | 1014.1 |
| 20260507045702 | 5 | 164 | 1.6 | 12.9 | 0.03 | 0.10 | 0.10 | 90 | 1014.1 |
| 20260507045203 | 5 | 155 | 4.8 | 9.7 | 0.03 | 0.10 | 0.10 | 90 | 1014.1 |
| 20260507044702 | 5 | 166 | 3.2 | 4.8 | 0.03 | 0.10 | 0.10 | 89 | 1014.1 |
| 20260507043702 | 5 | 160 | 1.6 | 11.3 | 0.03 | 0.10 | 0.10 | 89 | 1014.0 |
| 20260507043202 | 5 | 162 | 4.8 | 9.7 | 0.03 | 0.10 | 0.10 | 89 | 1014.0 |
| 20260507042702 | 5 | 143 | 3.2 | 8.0 | 0.03 | 0.10 | 0.10 | 89 | 1014.0 |
| 20260507042202 | 5 | 159 | 3.2 | 9.7 | 0.03 | 0.10 | 0.10 | 88 | 1013.9 |
| 20260507041202 | 5 | 153 | 3.2 | 12.9 | 0.03 | 0.10 | 0.10 | 87 | 1013.9 |
| 20260507040702 | 6 | 144 | 3.2 | 19.3 | 0.03 | 0.10 | 0.10 | 87 | 1013.9 |
| 20260507040202 | 6 | 146 | 4.8 | 9.7 | 0.00 | 0.08 | 0.08 | 86 | 1013.8 |
| 20260507035702 | 6 | 163 | 6.4 | 11.3 | 0.00 | 0.08 | 0.08 | 87 | 1013.8 |
| 20260507035203 | 6 | 157 | 3.2 | 9.7 | 0.00 | 0.08 | 0.08 | 87 | 1013.7 |
| 20260507034202 | 6 | 176 | 3.2 | 8.0 | 0.03 | 0.08 | 0.08 | 89 | 1013.6 |
| 20260507033702 | 6 | 156 | 1.6 | 11.3 | 0.03 | 0.08 | 0.08 | 90 | 1013.6 |
| 20260507033202 | 6 | 157 | 3.2 | 4.8 | 0.03 | 0.08 | 0.08 | 91 | 1013.6 |
| 20260507032702 | 5 | 162 | 1.6 | 9.7 | 0.03 | 0.08 | 0.08 | 90 | 1013.6 |
| 20260507032203 | 5 | 146 | 1.6 | 4.8 | 0.03 | 0.08 | 0.08 | 90 | 1013.6 |
| 20260507031702 | 5 | 146 | 3.2 | 4.8 | 0.03 | 0.08 | 0.08 | 90 | 1013.6 |
| 20260507031202 | 5 | 146 | 1.6 | 4.8 | 0.03 | 0.08 | 0.08 | 89 | 1013.5 |
| 20260507030702 | 5 | 153 | 0.0 | 4.8 | 0.03 | 0.08 | 0.08 | 89 | 1013.5 |
| 20260507025202 | 6 | 153 | 1.6 | 8.0 | 0.03 | 0.08 | 0.08 | 86 | 1013.5 |
| 20260507024703 | 6 | 156 | 3.2 | 9.7 | 0.03 | 0.08 | 0.08 | 84 | 1013.5 |
| 20260507024202 | 6 | 171 | 4.8 | 8.0 | 0.00 | 0.05 | 0.05 | 84 | 1013.4 |
| 20260507023706 | 6 | 161 | 3.2 | 8.0 | 0.00 | 0.05 | 0.05 | 84 | 1013.4 |
| 20260507023203 | 6 | 142 | 0.0 | 4.8 | 0.00 | 0.05 | 0.05 | 84 | 1013.3 |
| 20260507022703 | 6 | 142 | 1.6 | 8.0 | 0.00 | 0.05 | 0.05 | 83 | 1013.3 |
| 20260507022202 | 6 | 171 | 3.2 | 8.0 | 0.00 | 0.05 | 0.05 | 83 | 1013.3 |
| 20260507021703 | 6 | 159 | 4.8 | 9.7 | 0.00 | 0.05 | 0.05 | 81 | 1013.3 |
| 20260507021203 | 6 | 177 | 8.0 | 19.3 | 0.00 | 0.05 | 0.05 | 80 | 1013.2 |
| 20260507020203 | 7 | 163 | 0.0 | 4.8 | 0.00 | 0.05 | 0.05 | 81 | 1013.2 |
| 20260507015703 | 7 | 161 | 3.2 | 12.9 | 0.00 | 0.05 | 0.05 | 81 | 1013.2 |
| 20260507015202 | 7 | 150 | 3.2 | 12.9 | 0.00 | 0.05 | 0.05 | 81 | 1013.2 |
| 20260507014703 | 7 | 160 | 4.8 | 9.7 | 0.00 | 0.05 | 0.05 | 80 | 1013.2 |
| 20260507014203 | 7 | 151 | 6.4 | 12.9 | 0.00 | 0.05 | 0.05 | 80 | 1013.1 |
| 20260507013702 | 7 | 155 | 4.8 | 9.7 | 0.00 | 0.05 | 0.05 | 80 | 1013.1 |
| 20260507013203 | 7 | 170 | 4.8 | 11.3 | 0.00 | 0.05 | 0.05 | 79 | 1013.1 |
| 20260507012702 | 7 | 163 | 3.2 | 8.0 | 0.00 | 0.05 | 0.05 | 79 | 1013.1 |
| 20260507012202 | 7 | 155 | 6.4 | 9.7 | 0.00 | 0.05 | 0.05 | 79 | 1013.1 |
| 20260507011702 | 7 | 163 | 3.2 | 11.3 | 0.00 | 0.05 | 0.05 | 80 | 1013.0 |
| 20260507011202 | 7 | 165 | 1.6 | 4.8 | 0.00 | 0.05 | 0.05 | 81 | 1013.1 |
| 20260507010703 | 7 | 133 | 3.2 | 9.7 | 0.00 | 0.05 | 0.05 | 81 | 1013.1 |
| 20260507005702 | 7 | 134 | 1.6 | 11.3 | 0.00 | 0.05 | 0.05 | 81 | 1013.1 |
| 20260507005203 | 7 | 148 | 1.6 | 8.0 | 0.00 | 0.05 | 0.05 | 80 | 1013.1 |
| 20260507004203 | 7 | 157 | 3.2 | 8.0 | 0.00 | 0.05 | 0.05 | 80 | 1013.0 |
| 20260507003703 | 7 | 164 | 3.2 | 9.7 | 0.00 | 0.05 | 0.05 | 79 | 1012.9 |
| 20260507003203 | 7 | 162 | 4.8 | 16.1 | 0.00 | 0.05 | 0.05 | 77 | 1013.0 |
| 20260507002703 | 8 | 160 | 1.6 | 16.1 | 0.00 | 0.05 | 0.05 | 75 | 1013.0 |
| 20260507002202 | 8 | 157 | 1.6 | 4.8 | 0.00 | 0.05 | 0.05 | 74 | 1012.9 |
| 20260507001203 | 8 | 144 | 1.6 | 9.7 | 0.00 | 0.05 | 0.05 | 71 | 1012.8 |
| 20260507000204 | 8 | 134 | 0.0 | 1.6 | 0.00 | 0.05 | 0.05 | 73 | 1012.8 |
| 20260506235203 | 8 | 126 | 1.6 | 4.8 | 0.00 | 0.05 | 0.05 | 74 | 1012.8 |
| 20260506234702 | 8 | 121 | 0.0 | 1.6 | 0.00 | 0.05 | 0.05 | 74 | 1012.8 |
| 20260506234203 | 8 | 121 | 0.0 | 1.6 | 0.00 | 0.05 | 0.05 | 74 | 1012.7 |
| 20260506233703 | 8 | 121 | 1.6 | 4.8 | 0.00 | 0.05 | 0.05 | 73 | 1012.7 |
| 20260506233202 | 8 | 164 | 1.6 | 4.8 | 0.00 | 0.05 | 0.05 | 73 | 1012.7 |
| 20260506232203 | 8 | 157 | 0.0 | 3.2 | 0.00 | 0.05 | 0.05 | 73 | 1012.6 |
| 20260506231202 | 8 | 157 | 0.0 | 3.2 | 0.00 | 0.05 | 0.05 | 73 | 1012.6 |
| 20260506225704 | 8 | 316 | 0.0 | 4.8 | 0.00 | 0.05 | 0.05 | 75 | 1012.5 |
| 20260506225203 | 8 | 113 | 0.0 | 3.2 | 0.00 | 0.05 | 0.05 | 76 | 1012.5 |
| 20260506224703 | 7 | 146 | 0.0 | 1.6 | 0.00 | 0.05 | 0.05 | 77 | 1012.5 |
| 20260506224202 | 7 | 146 | 6.4 | 14.5 | 0.00 | 0.05 | 0.05 | 75 | 1012.5 |
| 20260506223703 | 7 | 190 | 0.0 | 3.2 | 0.00 | 0.05 | 0.05 | 76 | 1012.5 |
| 20260506223203 | 7 | 184 | 1.6 | 8.0 | 0.00 | 0.05 | 0.05 | 75 | 1012.5 |
| 20260506222703 | 7 | 163 | 1.6 | 9.7 | 0.00 | 0.05 | 0.05 | 77 | 1012.4 |
| 20260506222203 | 7 | 271 | 0.0 | 4.8 | 0.00 | 0.05 | 0.05 | 79 | 1012.4 |
| 20260506220703 | 7 | 205 | 1.6 | 4.8 | 0.00 | 0.05 | 0.05 | 81 | 1012.4 |
| 20260506220203 | 7 | 265 | 0.0 | 3.2 | 0.00 | 0.05 | 0.05 | 81 | 1012.4 |
| 20260506215702 | 7 | 265 | 0.0 | 4.8 | 0.00 | 0.05 | 0.05 | 82 | 1012.4 |
| 20260506215202 | 7 | 131 | 0.0 | 4.8 | 0.00 | 0.05 | 0.05 | 80 | 1012.4 |
| 20260506214703 | 7 | 138 | 3.2 | 4.8 | 0.00 | 0.05 | 0.05 | 79 | 1012.3 |
| 20260506214204 | 7 | 163 | 0.0 | 3.2 | 0.00 | 0.05 | 0.05 | 81 | 1012.3 |
| 20260506213703 | 6 | 163 | 1.6 | 4.8 | 0.00 | 0.05 | 0.05 | 80 | 1012.3 |
| 20260506213203 | 6 | 162 | 3.2 | 11.3 | 0.00 | 0.05 | 0.05 | 81 | 1012.3 |
| 20260506212203 | 6 | 154 | 0.0 | 3.2 | 0.00 | 0.05 | 0.05 | 83 | 1012.2 |
| 20260506211703 | 6 | 154 | 0.0 | 1.6 | 0.00 | 0.05 | 0.05 | 83 | 1012.2 |
| 20260506211203 | 6 | 154 | 0.0 | 4.8 | 0.00 | 0.05 | 0.05 | 83 | 1012.1 |
| 20260506210703 | 6 | 154 | 0.0 | 4.8 | 0.03 | 0.05 | 0.05 | 83 | 1012.2 |
| 20260506205703 | 6 | 154 | 1.6 | 4.8 | 0.03 | 0.05 | 0.05 | 85 | 1012.1 |
| 20260506205203 | 6 | 154 | 3.2 | 11.3 | 0.03 | 0.05 | 0.05 | 85 | 1012.1 |
| 20260506204703 | 6 | 155 | 1.6 | 4.8 | 0.03 | 0.05 | 0.05 | 85 | 1012.1 |
| 20260506204203 | 6 | 155 | 1.6 | 4.8 | 0.03 | 0.05 | 0.05 | 86 | 1012.1 |
| 20260506203704 | 6 | 155 | 0.0 | 0.0 | 0.03 | 0.05 | 0.05 | 87 | 1012.1 |
| 20260506203203 | 6 | 155 | 0.0 | 0.0 | 0.05 | 0.05 | 0.05 | 86 | 1012.0 |
| 20260506202203 | 6 | 155 | 0.0 | 0.0 | 0.05 | 0.05 | 0.05 | 86 | 1011.9 |
| 20260506200703 | 6 | 155 | 0.0 | 1.6 | 0.03 | 0.03 | 0.03 | 86 | 1011.8 |
| 20260506195704 | 6 | 155 | 0.0 | 0.0 | 0.03 | 0.03 | 0.03 | 87 | 1011.7 |
| 20260506195203 | 6 | 155 | 0.0 | 1.6 | 0.03 | 0.03 | 0.03 | 87 | 1011.7 |
| 20260506194703 | 6 | 155 | 0.0 | 0.0 | 0.03 | 0.03 | 0.03 | 86 | 1011.6 |
| 20260506194202 | 6 | 155 | 0.0 | 0.0 | 0.03 | 0.03 | 0.03 | 85 | 1011.6 |
| 20260506193203 | 6 | 155 | 0.0 | 4.8 | 0.00 | 0.00 | 0.00 | 84 | 1011.6 |
| 20260506192704 | 6 | 155 | 0.0 | 3.2 | 0.00 | 0.00 | 0.00 | 84 | 1011.6 |
| 20260506192203 | 6 | 155 | 0.0 | 3.2 | 0.00 | 0.00 | 0.00 | 85 | 1011.6 |
| 20260506191704 | 6 | 155 | 1.6 | 4.8 | 0.00 | 0.00 | 0.00 | 85 | 1011.6 |
| 20260506190704 | 6 | 155 | 0.0 | 1.6 | 0.00 | 0.00 | 0.00 | 86 | 1011.5 |
| 20260506190203 | 6 | 155 | 0.0 | 3.2 | 0.00 | 0.00 | 0.00 | 85 | 1011.5 |
| 20260506185703 | 5 | 155 | 0.0 | 0.0 | 0.00 | 0.00 | 0.00 | 85 | 1011.4 |
| 20260506184703 | 5 | 155 | 0.0 | 0.0 | 0.00 | 0.00 | 0.00 | 85 | 1011.4 |
| 20260506184203 | 5 | 155 | 0.0 | 1.6 | 0.00 | 0.00 | 0.00 | 85 | 1011.4 |
| 20260506183704 | 5 | 155 | 0.0 | 0.0 | 0.00 | 0.00 | 0.00 | 85 | 1011.4 |
| 20260506183203 | 5 | 155 | 1.6 | 3.2 | 0.00 | 0.00 | 0.00 | 86 | 1011.3 |
| 20260506182706 | 5 | 155 | 0.0 | 0.0 | 0.00 | 0.00 | 0.00 | 86 | 1011.3 |
| 20260506182203 | 5 | 155 | 0.0 | 3.2 | 0.00 | 0.00 | 0.00 | 86 | 1011.3 |
| 20260506181703 | 5 | 155 | 0.0 | 0.0 | 0.00 | 0.00 | 0.00 | 86 | 1011.3 |
| 20260506181203 | 5 | 155 | 1.6 | 4.8 | 0.00 | 0.00 | 0.00 | 86 | 1011.2 |
| 20260506180703 | 5 | 155 | 0.0 | 3.2 | 0.00 | 0.00 | 0.00 | 86 | 1011.2 |
| 20260506180204 | 5 | 155 | 0.0 | 1.6 | 0.00 | 0.00 | 0.00 | 87 | 1011.2 |
| 20260506175703 | 5 | 155 | 0.0 | 1.6 | 0.00 | 0.00 | 0.00 | 87 | 1011.2 |
| 20260506175203 | 5 | 155 | 0.0 | 3.2 | 0.00 | 0.00 | 0.00 | 87 | 1011.2 |
| 20260506174703 | 5 | 155 | 0.0 | 3.2 | 0.00 | 0.00 | 0.00 | 87 | 1011.1 |
| 20260506173203 | 5 | 155 | 1.6 | 4.8 | 0.00 | 0.00 | 0.00 | 87 | 1011.1 |
| 20260506172703 | 5 | 155 | 0.0 | 4.8 | 0.00 | 0.00 | 0.00 | 87 | 1011.1 |
| 20260506172204 | 5 | 155 | 1.6 | 4.8 | 0.00 | 0.00 | 0.00 | 87 | 1011.1 |
| 20260506171204 | 5 | 156 | 1.6 | 4.8 | 0.00 | 0.00 | 0.00 | 88 | 1011.1 |
| 20260506170704 | 5 | 156 | 1.6 | 4.8 | 0.00 | 0.00 | 0.00 | 88 | 1011.0 |
| 20260506170204 | 5 | 156 | 0.0 | 4.8 | 0.00 | 0.00 | 0.00 | 88 | 1011.0 |
| 20260506165204 | 5 | 156 | 1.6 | 8.0 | 0.00 | 0.00 | 0.00 | 88 | 1011.0 |
| 20260506164204 | 5 | 156 | 1.6 | 8.0 | 0.00 | 0.00 | 0.00 | 88 | 1010.9 |
| 20260506163203 | 4 | 156 | 0.0 | 3.2 | 0.00 | 0.00 | 0.00 | 88 | 1010.8 |
| 20260506162704 | 4 | 156 | 3.2 | 8.0 | 0.00 | 0.00 | 0.00 | 88 | 1010.8 |
| 20260506162203 | 4 | 156 | 0.0 | 3.2 | 0.00 | 0.00 | 0.00 | 87 | 1010.8 |
| 20260506161703 | 4 | 156 | 1.6 | 4.8 | 0.00 | 0.00 | 0.00 | 88 | 1010.8 |
| 20260506161204 | 4 | 156 | 3.2 | 8.0 | 0.00 | 0.00 | 0.00 | 88 | 1010.7 |
| 20260506160703 | 4 | 155 | 0.0 | 0.0 | 0.00 | 0.00 | 0.00 | 89 | 1010.7 |
| 20260506160204 | 4 | 155 | 0.0 | 0.0 | 0.00 | 0.00 | 0.00 | 90 | 1010.6 |
| 20260506155204 | 4 | 155 | 1.6 | 4.8 | 0.00 | 0.00 | 0.00 | 90 | 1010.6 |
| 20260506154704 | 3 | 155 | 0.0 | 1.6 | 0.00 | 0.00 | 0.00 | 91 | 1010.6 |
| 20260506154204 | 3 | 155 | 0.0 | 3.2 | 0.00 | 0.00 | 0.00 | 91 | 1010.5 |
| 20260506153704 | 3 | 155 | 0.0 | 3.2 | 0.00 | 0.00 | 0.00 | 91 | 1010.6 |
| 20260506153204 | 3 | 155 | 0.0 | 1.6 | 0.00 | 0.00 | 0.00 | 91 | 1010.6 |
| 20260506152703 | 3 | 155 | 0.0 | 1.6 | 0.00 | 0.00 | 0.00 | 91 | 1010.7 |
| 20260506152203 | 3 | 155 | 0.0 | 0.0 | 0.00 | 0.00 | 0.00 | 92 | 1010.6 |
| 20260506151203 | 3 | 155 | 0.0 | 0.0 | 0.00 | 0.00 | 0.00 | 91 | 1010.6 |
| 20260506150703 | 3 | 155 | 0.0 | 0.0 | 0.00 | 0.00 | 0.00 | 92 | 1010.5 |
| 20260506150204 | 3 | 155 | 0.0 | 0.0 | 0.00 | 0.00 | 0.00 | 91 | 1010.5 |
| 20260506145203 | 3 | 155 | 0.0 | 0.0 | 0.00 | 0.00 | 0.00 | 91 | 1010.5 |
| 20260506144704 | 3 | 155 | 0.0 | 0.0 | 0.00 | 0.00 | 0.00 | 91 | 1010.4 |
| 20260506144204 | 3 | 155 | 0.0 | 0.0 | 0.00 | 0.00 | 0.00 | 91 | 1010.4 |
| 20260506143204 | 3 | 155 | 0.0 | 0.0 | 0.00 | 0.00 | 0.00 | 91 | 1010.4 |
| 20260506142704 | 3 | 155 | 0.0 | 0.0 | 0.00 | 0.00 | 0.00 | 91 | 1010.4 |
| 20260506142204 | 3 | 155 | 0.0 | 0.0 | 0.00 | 0.00 | 0.00 | 91 | 1010.4 |
| 20260506141204 | 3 | 155 | 0.0 | 0.0 | 0.00 | 0.00 | 0.00 | 90 | 1010.4 |
| 20260506140703 | 3 | 155 | 0.0 | 0.0 | 0.00 | 0.00 | 0.00 | 90 | 1010.4 |
| 20260506140204 | 3 | 155 | 0.0 | 0.0 | 0.00 | 0.00 | 0.00 | 90 | 1010.4 |
| 20260506135204 | 3 | 155 | 0.0 | 0.0 | 0.00 | 0.00 | 0.00 | 90 | 1010.3 |
| 20260506134704 | 3 | 155 | 0.0 | 0.0 | 0.00 | 0.00 | 0.00 | 90 | 1010.4 |
| 20260506134204 | 3 | 155 | 0.0 | 1.6 | 0.00 | 0.00 | 0.00 | 90 | 1010.4 |
| 20260506133704 | 3 | 155 | 0.0 | 1.6 | 0.00 | 0.00 | 0.00 | 90 | 1010.3 |
| 20260506133204 | 3 | 155 | 0.0 | 3.2 | 0.00 | 0.00 | 0.00 | 90 | 1010.3 |
| 20260506132204 | 3 | 155 | 0.0 | 3.2 | 0.00 | 0.00 | 0.00 | 90 | 1010.3 |
| 20260506131204 | 3 | 155 | 0.0 | 3.2 | 0.00 | 0.00 | 0.00 | 90 | 1010.2 |
| 20260506130704 | 3 | 155 | 1.6 | 9.7 | 0.00 | 0.00 | 0.00 | 90 | 1010.2 |
| 20260506130203 | 3 | 151 | 1.6 | 4.8 | 0.00 | 0.03 | 0.00 | 90 | 1010.3 |
| 20260506125703 | 3 | 155 | 0.0 | 3.2 | 0.00 | 0.03 | 0.00 | 90 | 1010.2 |
| 20260506125204 | 3 | 155 | 0.0 | 3.2 | 0.00 | 0.03 | 0.00 | 90 | 1010.1 |
| 20260506124704 | 3 | 155 | 0.0 | 3.2 | 0.00 | 0.03 | 0.00 | 90 | 1010.1 |
| 20260506124204 | 3 | 155 | 0.0 | 0.0 | 0.00 | 0.03 | 0.00 | 90 | 1010.1 |
| 20260506123704 | 3 | 155 | 0.0 | 3.2 | 0.00 | 0.03 | 0.00 | 90 | 1010.1 |
| 20260506123204 | 3 | 155 | 0.0 | 3.2 | 0.00 | 0.03 | 0.00 | 90 | 1010.1 |
| 20260506122704 | 3 | 155 | 0.0 | 1.6 | 0.00 | 0.03 | 0.00 | 90 | 1010.0 |
| 20260506122203 | 3 | 155 | 0.0 | 3.2 | 0.00 | 0.03 | 0.00 | 90 | 1010.0 |
| 20260506121704 | 3 | 155 | 0.0 | 1.6 | 0.00 | 0.03 | 0.00 | 90 | 1010.0 |
| 20260506121204 | 3 | 155 | 0.0 | 3.2 | 0.00 | 0.03 | 0.00 | 90 | 1009.9 |
| 20260506120704 | 3 | 155 | 0.0 | 3.2 | 0.00 | 0.03 | 0.00 | 90 | 1009.9 |
| 20260506120204 | 3 | 155 | 0.0 | 3.2 | 0.00 | 0.03 | 0.00 | 89 | 1009.9 |
| 20260506115703 | 3 | 155 | 0.0 | 0.0 | 0.00 | 0.03 | 0.00 | 89 | 1009.9 |
| 20260506115204 | 3 | 155 | 0.0 | 1.6 | 0.00 | 0.03 | 0.00 | 89 | 1009.8 |
| 20260506114204 | 3 | 155 | 0.0 | 3.2 | 0.00 | 0.03 | 0.00 | 89 | 1009.8 |
| 20260506113704 | 3 | 155 | 0.0 | 3.2 | 0.00 | 0.03 | 0.00 | 88 | 1009.8 |
| 20260506113204 | 3 | 155 | 0.0 | 3.2 | 0.00 | 0.03 | 0.00 | 88 | 1009.8 |
| 20260506112704 | 3 | 155 | 0.0 | 3.2 | 0.00 | 0.03 | 0.00 | 88 | 1009.8 |
| 20260506112204 | 3 | 155 | 1.6 | 4.8 | 0.00 | 0.03 | 0.00 | 87 | 1009.7 |
| 20260506111704 | 3 | 155 | 1.6 | 4.8 | 0.00 | 0.03 | 0.00 | 87 | 1009.8 |
| 20260506111204 | 3 | 155 | 1.6 | 3.2 | 0.00 | 0.03 | 0.00 | 86 | 1009.7 |
| 20260506110704 | 3 | 155 | 0.0 | 1.6 | 0.00 | 0.03 | 0.00 | 86 | 1009.7 |
| 20260506110204 | 3 | 155 | 0.0 | 3.2 | 0.00 | 0.03 | 0.00 | 85 | 1009.6 |
| 20260506105704 | 3 | 155 | 0.0 | 3.2 | 0.00 | 0.03 | 0.00 | 85 | 1009.5 |
| 20260506104704 | 3 | 155 | 3.2 | 9.7 | 0.00 | 0.03 | 0.00 | 85 | 1009.4 |
| 20260506104203 | 3 | 160 | 1.6 | 9.7 | 0.00 | 0.03 | 0.00 | 85 | 1009.4 |
| 20260506103204 | 3 | 144 | 1.6 | 4.8 | 0.00 | 0.03 | 0.00 | 86 | 1009.3 |
| 20260506102704 | 3 | 144 | 0.0 | 1.6 | 0.00 | 0.03 | 0.00 | 87 | 1009.3 |
| 20260506102204 | 3 | 144 | 1.6 | 4.8 | 0.00 | 0.03 | 0.00 | 88 | 1009.3 |
| 20260506101704 | 3 | 144 | 0.0 | 3.2 | 0.00 | 0.03 | 0.00 | 90 | 1009.3 |
| 20260506100704 | 2 | 157 | 3.2 | 8.0 | 0.00 | 0.03 | 0.00 | 93 | 1009.1 |
| 20260506100203 | 2 | 143 | 0.0 | 0.0 | 0.00 | 0.03 | 0.00 | 93 | 1009.1 |
| 20260506095704 | 2 | 142 | 0.0 | 0.0 | 0.00 | 0.03 | 0.00 | 93 | 1009.0 |
| 20260506095204 | 3 | 143 | 0.0 | 0.0 | 0.00 | 0.03 | 0.00 | 93 | 1009.0 |
| 20260506094704 | 3 | 142 | 0.0 | 0.0 | 0.00 | 0.03 | 0.00 | 93 | 1008.9 |
| 20260506094204 | 3 | 142 | 0.0 | 0.0 | 0.00 | 0.03 | 0.00 | 93 | 1008.8 |
| 20260506093704 | 3 | 143 | 0.0 | 0.0 | 0.00 | 0.03 | 0.00 | 93 | 1008.9 |
| 20260506093208 | 3 | 143 | 0.0 | 0.0 | 0.00 | 0.03 | 0.00 | 93 | 1008.8 |
| 20260506092704 | 3 | 143 | 0.0 | 0.0 | 0.00 | 0.03 | 0.00 | 93 | 1008.8 |
| 20260506092205 | 3 | 143 | 0.0 | 0.0 | 0.00 | 0.03 | 0.00 | 93 | 1008.8 |
| 20260506091704 | 3 | 143 | 0.0 | 0.0 | 0.00 | 0.03 | 0.00 | 93 | 1008.7 |
| 20260506091202 | 3 | 142 | 0.0 | 0.0 | 0.00 | 0.03 | 0.00 | 93 | 1008.7 |
| 20260506090702 | 3 | 142 | 0.0 | 0.0 | 0.00 | 0.03 | 0.00 | 92 | 1008.6 |
| 20260506090202 | 3 | 142 | 0.0 | 0.0 | 0.00 | 0.03 | 0.00 | 92 | 1008.5 |
| 20260506085202 | 3 | 143 | 0.0 | 0.0 | 0.00 | 0.03 | 0.00 | 92 | 1008.5 |
| 20260506084702 | 3 | 143 | 0.0 | 0.0 | 0.00 | 0.03 | 0.00 | 91 | 1008.4 |
| 20260506084202 | 3 | 143 | 0.0 | 0.0 | 0.00 | 0.03 | 0.00 | 91 | 1008.4 |
| 20260506083702 | 3 | 143 | 0.0 | 0.0 | 0.00 | 0.03 | 0.00 | 91 | 1008.3 |
| 20260506083201 | 3 | 142 | 0.0 | 0.0 | 0.00 | 0.03 | 0.00 | 91 | 1008.3 |
| 20260506082702 | 3 | 143 | 0.0 | 0.0 | 0.00 | 0.03 | 0.00 | 91 | 1008.2 |
| 20260506082201 | 3 | 142 | 0.0 | 0.0 | 0.00 | 0.03 | 0.00 | 91 | 1008.1 |
| 20260506081702 | 4 | 143 | 0.0 | 0.0 | 0.00 | 0.03 | 0.00 | 90 | 1008.1 |
| 20260506081202 | 4 | 142 | 0.0 | 0.0 | 0.00 | 0.03 | 0.00 | 90 | 1008.1 |
| 20260506080708 | 4 | 143 | 0.0 | 0.0 | 0.00 | 0.03 | 0.00 | 90 | 1008.0 |
| 20260506080201 | 4 | 143 | 0.0 | 0.0 | 0.00 | 0.03 | 0.00 | 90 | 1007.9 |
| 20260506073201 | 5 | 143 | 0.0 | 0.0 | 0.00 | 0.03 | 0.03 | 87 | 1007.8 |
| 20260506072705 | 5 | 143 | 0.0 | 0.0 | 0.00 | 0.03 | 0.03 | 86 | 1007.9 |
| 20260506072202 | 5 | 143 | 0.0 | 0.0 | 0.00 | 0.03 | 0.03 | 85 | 1007.9 |
| 20260506071202 | 6 | 143 | 0.0 | 3.2 | 0.00 | 0.03 | 0.03 | 82 | 1007.9 |
| 20260506070702 | 6 | 143 | 0.0 | 1.6 | 0.00 | 0.03 | 0.03 | 81 | 1007.8 |
| 20260506070202 | 6 | 141 | 1.6 | 4.8 | 0.00 | 0.03 | 0.03 | 80 | 1007.8 |